createdAt,value
2023-04-02T00:01:44.083Z,99488.60
2023-04-02T00:04:23.441Z,99499.40
2023-04-02T00:07:31.306Z,99498.60
2023-04-02T00:10:06.297Z,99500.60
2023-04-02T00:12:40.590Z,99505.00
2023-04-02T00:15:17.337Z,99509.60
2023-04-02T00:17:51.400Z,99514.20
2023-04-02T00:20:28.056Z,99518.00
2023-04-02T00:23:03.532Z,99521.60
2023-04-02T00:25:43.254Z,99524.00
2023-04-02T00:28:23.738Z,99525.20
2023-04-02T00:31:01.516Z,99528.80
2023-04-02T00:33:36.645Z,99539.20
2023-04-02T00:36:13.140Z,99541.40
2023-04-02T00:38:48.875Z,99542.20
2023-04-02T00:41:31.275Z,99541.00
2023-04-02T00:44:06.717Z,99540.20
2023-04-02T00:46:48.529Z,99545.00
2023-04-02T00:49:34.021Z,99547.60
2023-04-02T00:52:12.907Z,99553.60
2023-04-02T00:54:53.436Z,99558.40
2023-04-02T00:57:31.132Z,99565.00
2023-04-02T01:00:22.184Z,99565.60
2023-04-02T01:03:34.726Z,99569.60
2023-04-02T01:06:15.616Z,99570.80
2023-04-02T01:09:13.162Z,99569.00
2023-04-02T01:12:10.669Z,99577.60
2023-04-02T01:14:58.702Z,99578.60
2023-04-02T01:17:54.701Z,99585.40
2023-04-02T01:21:22.004Z,99591.20
2023-04-02T01:24:07.372Z,99600.80
2023-04-02T01:26:58.990Z,99595.40
2023-04-02T01:29:38.651Z,99604.20
2023-04-02T01:32:18.080Z,99611.20
2023-04-02T01:34:54.339Z,99614.60
2023-04-02T01:37:46.983Z,99613.40
2023-04-02T01:40:39.871Z,99614.40
2023-04-02T01:43:27.901Z,99623.60
2023-04-02T01:46:24.789Z,99624.60
2023-04-02T01:49:01.865Z,99628.20
2023-04-02T01:51:41.615Z,99631.20
2023-04-02T01:54:20.989Z,99633.00
2023-04-02T01:56:57.494Z,99637.00
2023-04-02T01:59:34.434Z,99645.00
2023-04-02T02:02:14.782Z,99644.60
2023-04-02T02:04:51.076Z,99650.00
2023-04-02T02:07:26.079Z,99648.80
2023-04-02T02:10:01.192Z,99648.60
2023-04-02T02:12:35.374Z,99657.80
2023-04-02T02:15:18.645Z,99662.80
2023-04-02T02:17:55.376Z,99669.40
2023-04-02T02:20:32.031Z,99669.20
2023-04-02T02:23:07.386Z,99676.20
2023-04-02T02:25:42.942Z,99678.80
2023-04-02T02:28:23.045Z,99679.60
2023-04-02T02:31:02.833Z,99680.20
2023-04-02T02:33:42.650Z,99685.00
2023-04-02T02:36:26.185Z,99690.20
2023-04-02T02:39:06.365Z,99698.20
2023-04-02T02:41:54.597Z,99706.80
2023-04-02T02:44:34.692Z,99706.00
2023-04-02T02:47:15.029Z,99706.40
2023-04-02T02:49:53.893Z,99712.40
2023-04-02T02:52:33.453Z,99716.40
2023-04-02T02:55:18.534Z,99724.40
2023-04-02T02:58:11.842Z,99724.80
2023-04-02T03:00:55.580Z,99733.00
2023-04-02T03:03:34.538Z,99737.40
2023-04-02T03:06:16.734Z,99746.60
2023-04-02T03:09:05.089Z,99750.00
2023-04-02T03:11:52.189Z,99760.40
2023-04-02T03:14:41.520Z,99762.20
2023-04-02T03:17:25.536Z,99766.60
2023-04-02T03:20:07.685Z,99771.40
2023-04-02T03:22:48.421Z,99782.00
2023-04-02T03:25:38.283Z,99782.00
2023-04-02T03:28:21.928Z,99786.00
2023-04-02T03:31:04.624Z,99786.80
2023-04-02T03:33:45.021Z,99793.60
2023-04-02T03:36:29.512Z,99801.80
2023-04-02T03:39:16.396Z,99800.00
2023-04-02T03:41:57.040Z,99809.60
2023-04-02T03:44:39.624Z,99812.80
2023-04-02T03:47:25.960Z,99823.40
2023-04-02T03:50:07.747Z,99826.60
2023-04-02T03:52:42.595Z,99830.80
2023-04-02T03:55:23.730Z,99839.40
2023-04-02T03:58:06.349Z,99846.40
2023-04-02T04:00:49.728Z,99851.20
2023-04-02T04:03:30.479Z,99857.60
2023-04-02T04:06:10.990Z,99859.60
2023-04-02T04:08:54.865Z,99867.20
2023-04-02T04:11:35.439Z,99868.80
2023-04-02T04:14:17.434Z,99869.20
2023-04-02T04:16:58.698Z,99876.20
2023-04-02T04:19:45.726Z,99884.00
2023-04-02T04:22:30.292Z,99886.00
2023-04-02T04:25:21.068Z,99888.80
2023-04-02T04:28:09.175Z,99899.20
2023-04-02T04:31:55.515Z,99901.40
2023-04-02T04:34:46.855Z,99905.20
2023-04-02T04:37:29.328Z,99918.40
2023-04-02T04:40:12.014Z,99918.80
2023-04-02T04:42:50.107Z,99918.00
2023-04-02T04:45:45.505Z,99926.80
2023-04-02T04:48:26.778Z,99933.20
2023-04-02T04:51:07.246Z,99935.40
2023-04-02T04:53:52.226Z,99937.00
2023-04-02T04:56:31.677Z,99940.00
2023-04-02T04:59:26.944Z,99947.40
2023-04-02T05:02:07.762Z,99951.40
2023-04-02T05:04:45.925Z,99962.80
2023-04-02T05:07:27.644Z,99963.00
2023-04-02T05:10:10.581Z,99973.60
2023-04-02T05:12:52.690Z,99979.80
2023-04-02T05:15:35.087Z,99976.40
2023-04-02T05:18:25.082Z,99990.00
2023-04-02T05:21:08.205Z,100000.00
2023-04-02T05:23:51.437Z,100004.40
2023-04-02T05:26:34.929Z,100003.60
2023-04-02T05:29:19.494Z,100006.60
2023-04-02T05:32:03.632Z,100006.40
2023-04-02T05:34:42.358Z,100005.20
2023-04-02T05:37:23.803Z,100005.40
2023-04-02T05:40:06.361Z,100008.60
2023-04-02T05:42:44.258Z,100018.40
2023-04-02T05:45:29.137Z,100017.60
2023-04-02T05:48:14.757Z,100019.20
2023-04-02T05:50:53.695Z,100025.00
2023-04-02T05:53:38.828Z,100030.60
2023-04-02T05:56:20.386Z,100031.40
2023-04-02T05:58:59.539Z,100034.80
2023-04-02T06:01:45.738Z,100034.60
2023-04-02T06:04:32.305Z,100046.00
2023-04-02T06:07:14.669Z,100048.00
2023-04-02T06:09:59.222Z,100062.00
2023-04-02T06:12:43.359Z,100055.20
2023-04-02T06:15:22.036Z,100064.00
2023-04-02T06:18:10.531Z,100061.60
2023-04-02T06:20:47.462Z,100065.20
2023-04-02T06:23:31.418Z,100070.00
2023-04-02T06:26:23.991Z,100074.80
2023-04-02T06:29:07.593Z,100085.00
2023-04-02T06:31:48.902Z,100084.00
2023-04-02T06:34:27.902Z,100090.80
2023-04-02T06:37:26.117Z,100091.60
2023-04-02T06:40:29.746Z,100099.20
2023-04-02T06:43:15.425Z,100096.20
2023-04-02T06:46:20.009Z,100108.00
2023-04-02T06:49:25.033Z,100115.00
2023-04-02T06:52:10.040Z,100110.60
2023-04-02T06:54:44.439Z,100122.20
2023-04-02T06:57:19.165Z,100118.40
2023-04-02T06:59:56.047Z,100123.20
2023-04-02T07:02:41.128Z,100127.60
2023-04-02T07:05:17.927Z,100135.40
2023-04-02T07:07:54.060Z,100131.60
2023-04-02T07:10:28.446Z,100138.40
2023-04-02T07:13:02.958Z,100139.00
2023-04-02T07:15:38.068Z,100140.00
2023-04-02T07:18:24.301Z,100147.60
2023-04-02T07:20:59.454Z,100150.60
2023-04-02T07:23:34.326Z,100157.80
2023-04-02T07:26:10.537Z,100157.80
2023-04-02T07:28:45.750Z,100170.80
2023-04-02T07:31:25.918Z,100166.80
2023-04-02T07:34:02.081Z,100175.40
2023-04-02T07:36:36.757Z,100174.80
2023-04-02T07:39:11.213Z,100182.80
2023-04-02T07:42:01.271Z,100188.20
2023-04-02T07:44:35.519Z,100193.00
2023-04-02T07:47:10.751Z,100196.40
2023-04-02T07:49:45.309Z,100201.00
2023-04-02T07:52:19.911Z,100197.40
2023-04-02T07:54:54.023Z,100203.40
2023-04-02T07:57:28.146Z,100205.80
2023-04-02T08:00:02.433Z,100212.60
2023-04-02T08:02:47.138Z,100215.40
2023-04-02T08:05:22.596Z,100220.80
2023-04-02T08:08:00.658Z,100225.20
2023-04-02T08:10:34.843Z,100225.80
2023-04-02T08:13:09.071Z,100232.00
2023-04-02T08:15:43.691Z,100243.80
2023-04-02T08:18:18.397Z,100243.40
2023-04-02T08:20:53.556Z,100248.20
2023-04-02T08:23:28.399Z,100256.40
2023-04-02T08:26:02.927Z,100258.40
2023-04-02T08:28:37.172Z,100260.60
2023-04-02T08:31:11.669Z,100262.40
2023-04-02T08:33:45.861Z,100268.40
2023-04-02T08:36:26.320Z,100262.80
2023-04-02T08:39:01.246Z,100271.80
2023-04-02T08:41:44.408Z,100270.00
2023-04-02T08:44:38.085Z,100273.20
2023-04-02T08:47:15.029Z,100272.00
2023-04-02T08:49:57.764Z,100269.00
2023-04-02T08:52:37.351Z,100266.00
2023-04-02T08:55:33.807Z,100265.80
2023-04-02T08:58:26.387Z,100277.40
2023-04-02T09:01:04.750Z,100280.60
2023-04-02T09:03:46.844Z,100281.80
2023-04-02T09:06:24.295Z,100286.60
2023-04-02T09:09:00.400Z,100282.20
2023-04-02T09:11:48.513Z,100290.20
2023-04-02T09:14:30.994Z,100295.20
2023-04-02T09:17:13.992Z,100297.20
2023-04-02T09:20:03.881Z,100305.40
2023-04-02T09:22:38.424Z,100314.20
2023-04-02T09:25:24.421Z,100324.40
2023-04-02T09:28:02.832Z,100331.20
2023-04-02T09:30:59.710Z,100331.60
2023-04-02T09:33:50.224Z,100338.40
2023-04-02T09:36:41.068Z,100341.40
2023-04-02T09:39:26.022Z,100350.20
2023-04-02T09:42:05.365Z,100352.40
2023-04-02T09:44:40.355Z,100360.60
2023-04-02T09:47:29.030Z,100362.60
2023-04-02T09:50:27.945Z,100367.60
2023-04-02T09:53:22.791Z,100369.20
2023-04-02T09:56:14.395Z,100373.80
2023-04-02T09:59:06.054Z,100378.00
2023-04-02T10:01:42.861Z,100375.40
2023-04-02T10:04:44.483Z,100387.20
2023-04-02T10:07:38.448Z,100386.40
2023-04-02T10:10:28.057Z,100388.60
2023-04-02T10:13:07.522Z,100395.80
2023-04-02T10:15:49.688Z,100392.40
2023-04-02T10:18:39.341Z,100405.00
2023-04-02T10:21:20.738Z,100410.00
2023-04-02T10:23:55.075Z,100407.40
2023-04-02T10:27:03.555Z,100408.60
2023-04-02T10:29:55.927Z,100411.20
2023-04-02T10:32:41.071Z,100420.40
2023-04-02T10:35:26.416Z,100417.40
2023-04-02T10:38:42.054Z,100416.60
2023-04-02T10:41:33.169Z,100422.80
2023-04-02T10:44:26.914Z,100419.40
2023-04-02T10:47:23.385Z,100418.60
2023-04-02T10:50:19.811Z,100420.00
2023-04-02T10:53:02.210Z,100429.40
2023-04-02T10:55:43.339Z,100431.00
2023-04-02T10:58:27.526Z,100434.80
2023-04-02T11:01:08.400Z,100434.40
2023-04-02T11:03:49.356Z,100444.20
2023-04-02T11:06:28.628Z,100445.40
2023-04-02T11:09:08.884Z,100447.60
2023-04-02T11:11:46.661Z,100454.80
2023-04-02T11:14:26.813Z,100455.60
2023-04-02T11:17:04.059Z,100458.80
2023-04-02T11:19:38.991Z,100466.20
2023-04-02T11:22:24.026Z,100474.40
2023-04-02T11:25:00.325Z,100477.40
2023-04-02T11:27:36.116Z,100470.00
2023-04-02T11:30:25.640Z,100473.20
2023-04-02T11:33:44.680Z,100471.60
2023-04-02T11:37:02.765Z,100475.60
2023-04-02T11:39:59.368Z,100478.80
2023-04-02T11:42:36.876Z,100477.20
2023-04-02T11:46:08.075Z,100476.40
2023-04-02T11:48:42.262Z,100479.80
2023-04-02T11:51:56.618Z,100473.00
2023-04-02T11:54:42.539Z,100484.20
2023-04-02T11:57:33.275Z,100494.60
2023-04-02T12:00:27.449Z,100503.80
2023-04-02T12:03:34.627Z,100517.00
2023-04-02T12:06:21.913Z,100515.00
2023-04-02T12:09:10.687Z,100522.40
2023-04-02T12:11:47.415Z,100525.60
2023-04-02T12:14:49.950Z,100520.40
2023-04-02T12:17:33.025Z,100528.00
2023-04-02T12:20:23.765Z,100535.80
2023-04-02T12:22:59.692Z,100536.00
2023-04-02T12:25:40.690Z,100541.20
2023-04-02T12:28:20.703Z,100541.40
2023-04-02T12:31:07.282Z,100545.00
2023-04-02T12:33:42.882Z,100538.80
2023-04-02T12:36:25.919Z,100542.80
2023-04-02T12:39:01.579Z,100540.20
2023-04-02T12:41:39.299Z,100536.20
2023-04-02T12:44:20.128Z,100539.00
2023-04-02T12:46:56.273Z,100539.80
2023-04-02T12:49:41.479Z,100542.60
2023-04-02T12:52:20.022Z,100538.00
2023-04-02T12:54:57.987Z,100546.40
2023-04-02T12:57:46.226Z,100550.60
2023-04-02T13:00:41.402Z,100550.60
2023-04-02T13:03:29.070Z,100549.60
2023-04-02T13:06:04.007Z,100558.80
2023-04-02T13:08:45.228Z,100555.60
2023-04-02T13:11:20.486Z,100560.80
2023-04-02T13:14:02.400Z,100565.80
2023-04-02T13:16:43.037Z,100569.00
2023-04-02T13:19:29.435Z,100568.80
2023-04-02T13:22:28.751Z,100574.00
2023-04-02T13:25:03.642Z,100573.60
2023-04-02T13:27:38.397Z,100578.00
2023-04-02T13:30:28.202Z,100579.00
2023-04-02T13:33:02.955Z,100583.00
2023-04-02T13:35:38.282Z,100579.40
2023-04-02T13:38:14.695Z,100587.80
2023-04-02T13:40:49.145Z,100589.00
2023-04-02T13:43:24.490Z,100595.40
2023-04-02T13:46:02.271Z,100592.60
2023-04-02T13:48:36.616Z,100599.00
2023-04-02T13:51:16.158Z,100603.00
2023-04-02T13:53:54.887Z,100603.80
2023-04-02T13:56:29.972Z,100613.40
2023-04-02T13:59:04.712Z,100615.00
2023-04-02T14:01:39.855Z,100614.20
2023-04-02T14:04:18.783Z,100617.00
2023-04-02T14:07:26.302Z,100620.20
2023-04-02T14:10:16.779Z,100621.20
2023-04-02T14:13:11.468Z,100626.20
2023-04-02T14:16:07.232Z,100625.20
2023-04-02T14:19:07.129Z,100629.80
2023-04-02T14:21:59.852Z,100636.20
2023-04-02T14:24:46.710Z,100637.00
2023-04-02T14:27:39.070Z,100639.40
2023-04-02T14:30:28.553Z,100643.60
2023-04-02T14:33:18.230Z,100645.20
2023-04-02T14:36:00.565Z,100649.60
2023-04-02T14:38:44.330Z,100656.00
2023-04-02T14:41:30.993Z,100657.60
2023-04-02T14:44:08.806Z,100664.20
2023-04-02T14:46:43.844Z,100667.60
2023-04-02T14:49:31.047Z,100661.00
2023-04-02T14:52:12.005Z,100663.80
2023-04-02T14:54:54.694Z,100672.40
2023-04-02T14:57:33.877Z,100666.40
2023-04-02T15:00:20.683Z,100678.00
2023-04-02T15:03:00.163Z,100682.00
2023-04-02T15:05:45.488Z,100679.60
2023-04-02T15:08:28.018Z,100683.80
2023-04-02T15:11:09.102Z,100688.60
2023-04-02T15:13:53.090Z,100693.20
2023-04-02T15:16:28.599Z,100694.00
2023-04-02T15:19:05.862Z,100695.20
2023-04-02T15:22:13.025Z,100691.40
2023-04-02T15:25:02.078Z,100702.40
2023-04-02T15:27:59.359Z,100703.20
2023-04-02T15:30:39.132Z,100706.60
2023-04-02T15:33:42.883Z,100708.40
2023-04-02T15:36:46.782Z,100711.00
2023-04-02T15:39:43.699Z,100717.20
2023-04-02T15:42:29.914Z,100718.20
2023-04-02T15:45:31.209Z,100730.20
2023-04-02T15:48:28.421Z,100726.80
2023-04-02T15:51:26.536Z,100731.40
2023-04-02T15:54:19.883Z,100738.20
2023-04-02T15:57:11.906Z,100737.40
2023-04-02T16:00:21.345Z,100741.60
2023-04-02T16:03:34.290Z,100741.00
2023-04-02T16:06:29.659Z,100747.80
2023-04-02T16:09:16.241Z,100750.20
2023-04-02T16:11:56.006Z,100752.00
2023-04-02T16:14:34.543Z,100755.80
2023-04-02T16:17:24.821Z,100764.40
2023-04-02T16:20:17.068Z,100770.80
2023-04-02T16:23:01.388Z,100775.00
2023-04-02T16:25:46.071Z,100782.00
2023-04-02T16:28:30.453Z,100782.20
2023-04-02T16:31:17.898Z,100789.60
2023-04-02T16:34:06.599Z,100796.80
2023-04-02T16:36:56.101Z,100799.00
2023-04-02T16:39:42.427Z,100805.20
2023-04-02T16:42:33.978Z,100809.60
2023-04-02T16:45:29.020Z,100811.20
2023-04-02T16:48:18.981Z,100816.20
2023-04-02T16:51:11.040Z,100823.80
2023-04-02T16:54:01.954Z,100827.40
2023-04-02T16:56:57.215Z,100822.80
2023-04-02T16:59:46.781Z,100825.00
2023-04-02T17:02:43.117Z,100829.80
2023-04-02T17:05:33.353Z,100838.40
2023-04-02T17:08:25.077Z,100836.20
2023-04-02T17:11:06.832Z,100841.40
2023-04-02T17:13:48.298Z,100849.20
2023-04-02T17:16:36.948Z,100858.80
2023-04-02T17:19:17.241Z,100855.80
2023-04-02T17:21:59.069Z,100856.60
2023-04-02T17:24:40.434Z,100865.60
2023-04-02T17:27:23.268Z,100867.40
2023-04-02T17:30:04.907Z,100866.40
2023-04-02T17:32:39.291Z,100872.80
2023-04-02T17:35:41.464Z,100873.00
2023-04-02T17:38:27.746Z,100878.60
2023-04-02T17:41:11.813Z,100880.40
2023-04-02T17:43:58.140Z,100887.80
2023-04-02T17:46:46.676Z,100886.20
2023-04-02T17:49:35.420Z,100889.20
2023-04-02T17:52:19.756Z,100892.80
2023-04-02T17:55:06.512Z,100898.20
2023-04-02T17:58:02.328Z,100898.60
2023-04-02T18:00:57.477Z,100912.20
2023-04-02T18:03:55.672Z,100910.20
2023-04-02T18:06:43.149Z,100913.00
2023-04-02T18:09:44.724Z,100917.40
2023-04-02T18:12:44.930Z,100924.20
2023-04-02T18:15:55.644Z,100931.20
2023-04-02T18:18:54.160Z,100932.00
2023-04-02T18:21:40.493Z,100943.60
2023-04-02T18:25:20.348Z,100949.40
2023-04-02T18:28:11.920Z,100952.40
2023-04-02T18:30:59.129Z,100955.00
2023-04-02T18:34:05.267Z,100960.80
2023-04-02T18:36:59.920Z,100968.60
2023-04-02T18:39:47.053Z,100970.20
2023-04-02T18:42:41.238Z,100977.60
2023-04-02T18:45:23.753Z,100980.80
2023-04-02T18:48:11.619Z,100983.60
2023-04-02T18:50:47.228Z,100983.20
2023-04-02T18:53:26.772Z,100983.60
2023-04-02T18:56:08.192Z,100987.80
2023-04-02T18:58:53.318Z,100995.40
2023-04-02T19:01:38.544Z,100992.20
2023-04-02T19:04:20.609Z,100998.20
2023-04-02T19:07:06.029Z,101001.20
2023-04-02T19:09:46.985Z,101005.20
2023-04-02T19:12:24.778Z,101008.40
2023-04-02T19:15:02.109Z,101007.40
2023-04-02T19:17:46.943Z,101012.00
2023-04-02T19:20:37.952Z,101014.00
2023-04-02T19:23:38.263Z,101014.80
2023-04-02T19:26:17.553Z,101017.60
2023-04-02T19:29:06.324Z,101015.00
2023-04-02T19:32:01.307Z,101026.40
2023-04-02T19:34:44.467Z,101024.60
2023-04-02T19:37:28.828Z,101029.60
2023-04-02T19:40:23.523Z,101027.60
2023-04-02T19:42:58.788Z,101029.20
2023-04-02T19:45:43.965Z,101030.40
2023-04-02T19:48:23.386Z,101033.80
2023-04-02T19:50:57.952Z,101038.60
2023-04-02T19:53:33.471Z,101034.40
2023-04-02T19:56:08.125Z,101040.60
2023-04-02T19:58:42.392Z,101042.60
2023-04-02T20:01:16.814Z,101049.20
2023-04-02T20:03:51.372Z,101049.00
2023-04-02T20:06:25.604Z,101051.00
2023-04-02T20:09:00.242Z,101050.60
2023-04-02T20:11:35.793Z,101050.00
2023-04-02T20:14:10.519Z,101056.60
2023-04-02T20:16:45.887Z,101052.80
2023-04-02T20:19:20.972Z,101060.20
2023-04-02T20:21:56.389Z,101054.40
2023-04-02T20:24:30.651Z,101060.00
2023-04-02T20:27:04.937Z,101067.40
2023-04-02T20:29:41.369Z,101070.20
2023-04-02T20:32:17.596Z,101066.80
2023-04-02T20:34:51.908Z,101071.20
2023-04-02T20:37:26.303Z,101077.00
2023-04-02T20:40:00.753Z,101079.40
2023-04-02T20:42:35.731Z,101085.80
2023-04-02T20:45:14.072Z,101090.40
2023-04-02T20:47:48.299Z,101095.60
2023-04-02T20:50:22.737Z,101099.40
2023-04-02T20:52:59.136Z,101105.20
2023-04-02T20:55:33.374Z,101109.60
2023-04-02T20:58:07.758Z,101110.20
2023-04-02T21:00:43.591Z,101117.60
2023-04-02T21:03:19.110Z,101119.60
2023-04-02T21:05:53.637Z,101119.20
2023-04-02T21:08:28.350Z,101119.60
2023-04-02T21:11:08.800Z,101120.40
2023-04-02T21:13:44.326Z,101124.80
2023-04-02T21:16:21.935Z,101112.80
2023-04-02T21:18:58.567Z,101131.60
2023-04-02T21:21:33.990Z,101130.20
2023-04-02T21:24:11.104Z,101125.60
2023-04-02T21:26:46.721Z,101130.80
2023-04-02T21:29:23.659Z,101133.00
2023-04-02T21:32:03.277Z,101139.40
2023-04-02T21:34:39.824Z,101130.80
2023-04-02T21:37:15.896Z,101143.00
2023-04-02T21:39:50.136Z,101146.40
2023-04-02T21:42:24.369Z,101143.80
2023-04-02T21:44:58.491Z,101156.80
2023-04-02T21:47:32.632Z,101157.80
2023-04-02T21:50:08.553Z,101151.80
2023-04-02T21:52:42.715Z,101155.00
2023-04-02T21:55:17.233Z,101154.60
2023-04-02T21:57:51.352Z,101157.40
2023-04-02T22:00:26.533Z,101155.80
2023-04-02T22:03:00.976Z,101164.20
2023-04-02T22:05:35.325Z,101167.20
2023-04-02T22:08:10.274Z,101168.20
2023-04-02T22:10:44.732Z,101166.60
2023-04-02T22:13:18.840Z,101167.80
2023-04-02T22:15:53.124Z,101173.20
2023-04-02T22:18:27.220Z,101172.60
2023-04-02T22:21:02.140Z,101181.00
2023-04-02T22:23:37.217Z,101176.60
2023-04-02T22:26:14.693Z,101183.00
2023-04-02T22:28:49.025Z,101186.60
2023-04-02T22:31:27.491Z,101189.60
2023-04-02T22:34:02.736Z,101188.80
2023-04-02T22:36:37.563Z,101185.40
2023-04-02T22:39:12.530Z,101188.80
2023-04-02T22:41:46.809Z,101192.20
2023-04-02T22:44:21.276Z,101189.00
2023-04-02T22:46:55.713Z,101192.40
2023-04-02T22:49:29.825Z,101190.60
2023-04-02T22:52:06.021Z,101195.00
2023-04-02T22:54:40.273Z,101194.20
2023-04-02T22:57:14.428Z,101194.20
2023-04-02T22:59:48.543Z,101199.00
2023-04-02T23:02:22.626Z,101203.60
2023-04-02T23:04:56.886Z,101204.20
2023-04-02T23:07:31.336Z,101210.20
2023-04-02T23:10:06.618Z,101215.00
2023-04-02T23:12:40.808Z,101214.60
2023-04-02T23:15:16.170Z,101217.00
2023-04-02T23:17:50.286Z,101213.20
2023-04-02T23:20:24.314Z,101221.60
2023-04-02T23:22:58.332Z,101224.20
2023-04-02T23:25:32.796Z,101225.60
2023-04-02T23:28:07.288Z,101233.60
2023-04-02T23:30:42.187Z,101238.40
2023-04-02T23:33:16.304Z,101232.40
2023-04-02T23:35:52.071Z,101235.60
2023-04-02T23:38:26.727Z,101240.20
2023-04-02T23:41:02.979Z,101241.60
2023-04-02T23:43:36.986Z,101241.40
2023-04-02T23:46:11.810Z,101246.00
2023-04-02T23:48:46.830Z,101249.00
2023-04-02T23:51:21.286Z,101246.40
2023-04-02T23:53:56.621Z,101245.40
2023-04-02T23:56:30.761Z,101250.60
2023-04-02T23:59:06.134Z,101254.80
